createdAt,value
2023-06-27T00:02:28.508Z,3.53
2023-06-27T00:07:29.013Z,3.83
2023-06-27T00:12:22.028Z,3.90
2023-06-27T00:17:17.569Z,3.57
2023-06-27T00:22:10.816Z,3.20
2023-06-27T00:27:03.593Z,3.37
2023-06-27T00:31:56.564Z,3.30
2023-06-27T00:36:50.551Z,3.20
2023-06-27T00:41:44.216Z,3.73
2023-06-27T00:46:37.908Z,3.53
2023-06-27T00:51:31.302Z,3.50
2023-06-27T00:56:25.581Z,3.80
2023-06-27T01:01:18.623Z,3.73
2023-06-27T01:06:16.157Z,3.47
2023-06-27T01:11:11.183Z,3.30
2023-06-27T01:16:06.493Z,3.57
2023-06-27T01:20:59.365Z,3.47
2023-06-27T01:25:55.087Z,3.20
2023-06-27T01:30:47.757Z,3.27
2023-06-27T01:35:44.691Z,3.53
2023-06-27T01:40:38.618Z,3.60
2023-06-27T01:45:32.918Z,3.47
2023-06-27T01:50:26.313Z,3.90
2023-06-27T01:55:19.071Z,4.33
2023-06-27T02:00:12.435Z,4.13
2023-06-27T02:05:12.467Z,3.77
2023-06-27T02:10:05.256Z,4.63
2023-06-27T02:14:57.902Z,3.70
2023-06-27T02:19:50.905Z,4.10
2023-06-27T02:24:45.183Z,3.67
2023-06-27T02:29:37.795Z,3.50
2023-06-27T02:34:30.703Z,4.03
2023-06-27T02:39:23.382Z,4.30
2023-06-27T02:44:17.377Z,4.63
2023-06-27T02:49:10.048Z,4.50
2023-06-27T02:54:05.105Z,3.90
2023-06-27T02:58:59.306Z,4.23
2023-06-27T03:04:02.597Z,3.93
2023-06-27T03:09:07.498Z,3.63
2023-06-27T03:14:02.178Z,4.27
2023-06-27T03:18:56.189Z,4.00
2023-06-27T03:23:48.970Z,3.73
2023-06-27T03:28:41.872Z,3.80
2023-06-27T03:33:34.650Z,4.33
2023-06-27T03:38:28.733Z,4.07
2023-06-27T03:43:23.400Z,4.40
2023-06-27T03:48:16.080Z,4.37
2023-06-27T03:53:08.723Z,4.23
2023-06-27T03:58:02.968Z,5.20
2023-06-27T04:02:55.945Z,4.50
2023-06-27T04:07:48.950Z,4.57
2023-06-27T04:12:41.648Z,4.57
2023-06-27T04:17:36.933Z,4.40
2023-06-27T04:22:29.738Z,4.20
2023-06-27T04:27:24.050Z,4.50
2023-06-27T04:32:16.662Z,4.10
2023-06-27T04:37:10.781Z,4.40
2023-06-27T04:42:03.692Z,4.50
2023-06-27T04:46:56.297Z,4.10
2023-06-27T04:51:49.056Z,4.33
2023-06-27T04:56:43.129Z,4.47
2023-06-27T05:01:35.714Z,4.67
2023-06-27T05:06:28.366Z,4.50
2023-06-27T05:11:21.082Z,3.93
2023-06-27T05:16:15.746Z,4.60
2023-06-27T05:21:09.238Z,4.50
2023-06-27T05:26:01.995Z,4.40
2023-06-27T05:30:54.707Z,4.20
2023-06-27T05:35:48.726Z,3.30
2023-06-27T05:40:41.523Z,3.50
2023-06-27T05:45:34.832Z,3.30
2023-06-27T05:50:28.463Z,3.83
2023-06-27T05:55:22.524Z,3.50
2023-06-27T06:00:15.839Z,3.53
2023-06-27T06:05:12.480Z,3.20
2023-06-27T06:10:05.417Z,3.33
2023-06-27T06:14:59.379Z,3.20
2023-06-27T06:19:52.059Z,2.87
2023-06-27T06:24:44.742Z,2.83
2023-06-27T06:29:37.391Z,2.63
2023-06-27T06:34:31.394Z,3.13
2023-06-27T06:39:24.047Z,3.27
2023-06-27T06:44:16.791Z,3.13
2023-06-27T06:49:10.122Z,3.60
2023-06-27T06:54:04.749Z,2.93
2023-06-27T06:58:57.352Z,3.13
2023-06-27T07:03:50.049Z,3.13
2023-06-27T07:08:42.682Z,3.13
2023-06-27T07:13:36.687Z,3.20
2023-06-27T07:18:29.304Z,3.30
2023-06-27T07:23:21.896Z,3.30
2023-06-27T07:28:14.612Z,3.47
2023-06-27T07:33:08.599Z,3.10
2023-06-27T07:38:01.337Z,3.43
2023-06-27T07:42:54.029Z,3.20
2023-06-27T07:47:46.696Z,3.37
2023-06-27T07:52:41.614Z,3.60
2023-06-27T07:57:34.326Z,3.50
2023-06-27T08:02:27.250Z,3.40
2023-06-27T08:07:20.069Z,3.10
2023-06-27T08:12:14.290Z,3.00
2023-06-27T08:17:07.383Z,3.17
2023-06-27T08:22:00.119Z,3.33
2023-06-27T08:26:55.987Z,3.60
2023-06-27T08:31:50.972Z,3.63
2023-06-27T08:36:44.978Z,3.17
2023-06-27T08:41:39.697Z,3.27
2023-06-27T08:46:33.815Z,3.47
2023-06-27T08:51:31.152Z,3.33
2023-06-27T08:56:27.383Z,3.30
2023-06-27T09:01:20.984Z,3.40
2023-06-27T09:06:14.167Z,2.87
2023-06-27T09:11:10.992Z,3.70
2023-06-27T09:16:04.080Z,3.27
2023-06-27T09:20:57.314Z,3.53
2023-06-27T09:26:06.936Z,3.47
2023-06-27T09:31:00.891Z,3.50
2023-06-27T09:36:01.746Z,3.00
2023-06-27T09:41:02.601Z,3.57
2023-06-27T09:45:58.919Z,3.23
2023-06-27T09:50:59.300Z,3.13
2023-06-27T09:55:59.062Z,3.40
2023-06-27T10:00:51.985Z,3.53
2023-06-27T10:05:54.465Z,3.60
2023-06-27T10:10:59.019Z,2.97
2023-06-27T10:15:51.927Z,3.17
2023-06-27T10:20:44.994Z,3.10
2023-06-27T10:25:37.752Z,2.83
2023-06-27T10:30:32.080Z,3.40
2023-06-27T10:35:27.050Z,3.17
2023-06-27T10:40:19.740Z,2.97
2023-06-27T10:45:12.935Z,2.93
2023-06-27T10:50:11.017Z,3.00
2023-06-27T10:55:22.694Z,2.40
2023-06-27T11:00:16.237Z,2.97
2023-06-27T11:05:13.863Z,2.80
2023-06-27T11:10:24.104Z,2.83
2023-06-27T11:15:18.951Z,2.93
2023-06-27T11:20:13.953Z,2.53
2023-06-27T11:25:12.548Z,3.17
2023-06-27T11:30:05.538Z,2.80
2023-06-27T11:34:58.117Z,2.80
2023-06-27T11:39:55.344Z,3.10
2023-06-27T11:44:48.109Z,3.33
2023-06-27T11:49:43.286Z,2.70
2023-06-27T11:54:35.940Z,2.73
2023-06-27T11:59:33.470Z,3.00
2023-06-27T12:04:26.600Z,2.80
2023-06-27T12:09:23.235Z,2.63
2023-06-27T12:14:22.538Z,2.70
2023-06-27T12:19:19.850Z,2.90
2023-06-27T12:24:12.632Z,3.00
2023-06-27T12:29:07.108Z,2.80
2023-06-27T12:34:00.655Z,2.93
2023-06-27T12:38:55.061Z,2.70
2023-06-27T12:43:48.045Z,2.93
2023-06-27T12:48:40.678Z,3.37
2023-06-27T12:53:33.386Z,2.60
2023-06-27T12:58:27.742Z,2.67
2023-06-27T13:03:20.752Z,2.43
2023-06-27T13:08:13.883Z,2.73
2023-06-27T13:13:06.592Z,2.47
2023-06-27T13:18:00.593Z,2.63
2023-06-27T13:22:53.401Z,2.20
2023-06-27T13:27:46.079Z,2.20
2023-06-27T13:32:38.827Z,2.27
2023-06-27T13:37:32.877Z,2.40
2023-06-27T13:42:25.515Z,2.40
2023-06-27T13:47:18.240Z,2.33
2023-06-27T13:52:11.530Z,2.17
2023-06-27T13:57:05.887Z,2.47
2023-06-27T14:02:00.019Z,2.33
2023-06-27T14:06:54.017Z,2.47
2023-06-27T14:11:46.991Z,2.37
2023-06-27T14:16:41.369Z,2.60
2023-06-27T14:21:35.132Z,2.47
2023-06-27T14:26:27.931Z,2.63
2023-06-27T14:31:20.624Z,2.23
2023-06-27T14:36:28.099Z,2.30
2023-06-27T14:41:21.606Z,2.60
2023-06-27T14:46:14.288Z,2.43
2023-06-27T14:51:06.918Z,2.70
2023-06-27T14:56:01.095Z,2.20
2023-06-27T15:00:53.762Z,2.20
2023-06-27T15:05:46.456Z,2.40
2023-06-27T15:10:45.690Z,2.70
2023-06-27T15:15:40.258Z,2.87
2023-06-27T15:20:32.912Z,2.60
2023-06-27T15:25:25.631Z,2.80
2023-06-27T15:30:18.335Z,2.80
2023-06-27T15:35:13.458Z,2.47
2023-06-27T15:40:06.677Z,2.83
2023-06-27T15:45:01.895Z,2.60
2023-06-27T15:49:54.732Z,2.83
2023-06-27T15:54:48.867Z,2.90
2023-06-27T15:59:41.519Z,2.77
2023-06-27T16:04:34.335Z,2.77
2023-06-27T16:09:27.359Z,2.57
2023-06-27T16:14:21.528Z,2.80
2023-06-27T16:19:14.145Z,3.17
2023-06-27T16:24:07.112Z,2.60
2023-06-27T16:28:59.772Z,3.80
2023-06-27T16:33:53.791Z,2.70
2023-06-27T16:38:46.586Z,2.90
2023-06-27T16:43:40.306Z,3.10
2023-06-27T16:48:32.970Z,2.97
2023-06-27T16:53:26.995Z,2.77
2023-06-27T16:58:20.075Z,2.70
2023-06-27T17:03:12.835Z,2.93
2023-06-27T17:08:05.918Z,3.10
2023-06-27T17:12:59.969Z,3.00
2023-06-27T17:17:52.627Z,3.00
2023-06-27T17:22:45.383Z,2.97
2023-06-27T17:27:38.012Z,2.87
2023-06-27T17:32:32.035Z,2.63
2023-06-27T17:37:24.712Z,2.80
2023-06-27T17:42:17.451Z,2.93
2023-06-27T17:47:12.621Z,2.73
2023-06-27T17:52:07.081Z,2.87
2023-06-27T17:56:59.817Z,3.07
2023-06-27T18:01:54.450Z,2.80
2023-06-27T18:06:47.246Z,2.50
2023-06-27T18:11:42.432Z,2.53
2023-06-27T18:16:35.131Z,2.60
2023-06-27T18:21:27.815Z,2.90
2023-06-27T18:26:20.475Z,2.63
2023-06-27T18:31:15.880Z,2.67
2023-06-27T18:36:09.028Z,2.60
2023-06-27T18:41:02.092Z,2.60
2023-06-27T18:45:55.425Z,3.00
2023-06-27T18:50:49.494Z,2.70
2023-06-27T18:55:42.307Z,3.10
2023-06-27T19:00:35.033Z,2.83
2023-06-27T19:05:28.576Z,2.73
2023-06-27T19:10:22.638Z,2.97
2023-06-27T19:15:15.411Z,3.00
2023-06-27T19:20:08.683Z,2.97
2023-06-27T19:25:01.767Z,2.80
2023-06-27T19:29:55.846Z,2.90
2023-06-27T19:34:48.433Z,2.80
2023-06-27T19:39:41.191Z,3.00
2023-06-27T19:44:33.810Z,2.93
2023-06-27T19:49:27.807Z,3.40
2023-06-27T19:54:20.450Z,2.93
2023-06-27T19:59:13.178Z,2.90
2023-06-27T20:04:06.881Z,3.10
2023-06-27T20:09:01.068Z,5.30
2023-06-27T20:13:54.414Z,3.50
2023-06-27T20:18:47.662Z,3.40
2023-06-27T20:23:40.344Z,3.43
2023-06-27T20:28:34.349Z,3.50
2023-06-27T20:33:27.010Z,3.60
2023-06-27T20:38:19.859Z,4.10
2023-06-27T20:43:12.532Z,3.70
2023-06-27T20:48:07.009Z,3.67
2023-06-27T20:53:00.020Z,3.83
2023-06-27T20:57:53.785Z,3.47
2023-06-27T21:02:46.630Z,3.70
2023-06-27T21:07:41.001Z,4.60
2023-06-27T21:12:34.114Z,4.27
2023-06-27T21:17:27.153Z,3.90
2023-06-27T21:22:19.833Z,4.30
2023-06-27T21:27:13.908Z,3.40
2023-06-27T21:32:07.335Z,4.00
2023-06-27T21:37:00.121Z,4.10
2023-06-27T21:41:52.781Z,4.03
2023-06-27T21:46:46.798Z,4.10
2023-06-27T21:51:39.419Z,4.40
2023-06-27T21:56:32.085Z,4.10
2023-06-27T22:01:26.009Z,4.13
2023-06-27T22:06:27.439Z,3.90
2023-06-27T22:11:27.184Z,4.10
2023-06-27T22:16:22.205Z,4.07
2023-06-27T22:21:15.621Z,4.10
2023-06-27T22:26:09.636Z,4.10
2023-06-27T22:31:02.428Z,4.03
2023-06-27T22:35:55.116Z,4.20
2023-06-27T22:40:47.778Z,3.90
2023-06-27T22:45:41.805Z,4.03
2023-06-27T22:50:34.518Z,3.80
2023-06-27T22:55:27.235Z,4.00
2023-06-27T23:00:20.379Z,4.40
2023-06-27T23:05:14.760Z,4.00
2023-06-27T23:10:07.946Z,3.90
2023-06-27T23:15:00.746Z,4.17
2023-06-27T23:19:53.575Z,4.03
2023-06-27T23:24:47.681Z,4.00
2023-06-27T23:29:41.862Z,3.90
2023-06-27T23:34:34.595Z,4.03
2023-06-27T23:39:27.424Z,3.70
2023-06-27T23:44:21.527Z,3.90
2023-06-27T23:49:14.168Z,3.60
2023-06-27T23:54:06.845Z,3.70
2023-06-27T23:58:59.613Z,3.63
